sensor_id;sensor_type;location;lat;lon;timestamp;temperature;humidity
3614;DHT22;1821;50.936;6.854;2022-10-31T00:00:26;14.70;99.90
3614;DHT22;1821;50.936;6.854;2022-10-31T00:01:13;14.70;99.90
3614;DHT22;1821;50.936;6.854;2022-10-31T00:01:55;14.30;99.90
3614;DHT22;1821;50.936;6.854;2022-10-31T00:02:37;14.40;99.90
3614;DHT22;1821;50.936;6.854;2022-10-31T00:03:19;14.60;99.90
3614;DHT22;1821;50.936;6.854;2022-10-31T00:04:02;14.90;99.90
3614;DHT22;1821;50.936;6.854;2022-10-31T00:04:43;14.40;99.90
3614;DHT22;1821;50.936;6.854;2022-10-31T00:05:25;14.60;99.90
3614;DHT22;1821;50.936;6.854;2022-10-31T00:06:07;14.30;99.90
3614;DHT22;1821;50.936;6.854;2022-10-31T00:06:49;14.70;99.90
3614;DHT22;1821;50.936;6.854;2022-10-31T00:07:30;14.50;99.90
3614;DHT22;1821;50.936;6.854;2022-10-31T00:08:12;14.50;99.90
3614;DHT22;1821;50.936;6.854;2022-10-31T00:08:59;14.50;99.90
3614;DHT22;1821;50.936;6.854;2022-10-31T00:09:42;14.60;99.90
3614;DHT22;1821;50.936;6.854;2022-10-31T00:10:23;14.60;99.90
3614;DHT22;1821;50.936;6.854;2022-10-31T00:11:09;14.20;99.90
3614;DHT22;1821;50.936;6.854;2022-10-31T00:11:50;14.30;99.90
3614;DHT22;1821;50.936;6.854;2022-10-31T00:12:32;14.30;99.90
3614;DHT22;1821;50.936;6.854;2022-10-31T00:13:14;14.60;99.90
3614;DHT22;1821;50.936;6.854;2022-10-31T00:13:58;14.30;99.90
3614;DHT22;1821;50.936;6.854;2022-10-31T00:14:40;14.40;99.90
3614;DHT22;1821;50.936;6.854;2022-10-31T00:15:22;14.70;99.90
3614;DHT22;1821;50.936;6.854;2022-10-31T00:16:04;14.20;99.90
3614;DHT22;1821;50.936;6.854;2022-10-31T00:16:45;14.30;99.90
3614;DHT22;1821;50.936;6.854;2022-10-31T00:17:27;14.30;99.90
3614;DHT22;1821;50.936;6.854;2022-10-31T00:18:10;14.30;99.90
3614;DHT22;1821;50.936;6.854;2022-10-31T00:18:54;14.60;99.90
3614;DHT22;1821;50.936;6.854;2022-10-31T00:19:36;14.40;99.90
3614;DHT22;1821;50.936;6.854;2022-10-31T00:20:17;14.60;99.90
3614;DHT22;1821;50.936;6.854;2022-10-31T00:21:00;14.50;99.90
3614;DHT22;1821;50.936;6.854;2022-10-31T00:21:42;14.60;99.90
3614;DHT22;1821;50.936;6.854;2022-10-31T00:22:24;14.20;99.90
3614;DHT22;1821;50.936;6.854;2022-10-31T00:23:06;14.50;99.90
3614;DHT22;1821;50.936;6.854;2022-10-31T00:23:48;14.60;99.90
3614;DHT22;1821;50.936;6.854;2022-10-31T00:24:30;14.40;99.90
3614;DHT22;1821;50.936;6.854;2022-10-31T00:25:12;14.30;99.90
3614;DHT22;1821;50.936;6.854;2022-10-31T00:25:53;14.30;99.90
3614;DHT22;1821;50.936;6.854;2022-10-31T00:26:35;14.60;99.90
3614;DHT22;1821;50.936;6.854;2022-10-31T00:27:17;14.20;99.90
3614;DHT22;1821;50.936;6.854;2022-10-31T00:27:59;14.30;99.90
3614;DHT22;1821;50.936;6.854;2022-10-31T00:28:41;14.60;99.90
3614;DHT22;1821;50.936;6.854;2022-10-31T00:29:23;14.60;99.90
3614;DHT22;1821;50.936;6.854;2022-10-31T00:30:05;14.20;99.90
3614;DHT22;1821;50.936;6.854;2022-10-31T00:30:47;14.10;99.90
3614;DHT22;1821;50.936;6.854;2022-10-31T00:31:29;14.50;99.90
3614;DHT22;1821;50.936;6.854;2022-10-31T00:32:11;14.50;99.90
3614;DHT22;1821;50.936;6.854;2022-10-31T00:32:52;14.50;99.90
3614;DHT22;1821;50.936;6.854;2022-10-31T00:33:35;14.50;99.90
3614;DHT22;1821;50.936;6.854;2022-10-31T00:34:18;14.00;99.90
3614;DHT22;1821;50.936;6.854;2022-10-31T00:34:59;14.00;99.90
3614;DHT22;1821;50.936;6.854;2022-10-31T00:35:41;14.40;99.90
3614;DHT22;1821;50.936;6.854;2022-10-31T00:36:23;14.30;99.90
3614;DHT22;1821;50.936;6.854;2022-10-31T00:37:04;14.30;99.90
3614;DHT22;1821;50.936;6.854;2022-10-31T00:37:46;14.30;99.90
3614;DHT22;1821;50.936;6.854;2022-10-31T00:38:28;14.30;99.90
3614;DHT22;1821;50.936;6.854;2022-10-31T00:39:10;14.50;99.90
3614;DHT22;1821;50.936;6.854;2022-10-31T00:39:51;14.40;99.90
3614;DHT22;1821;50.936;6.854;2022-10-31T00:40:33;14.40;99.90
3614;DHT22;1821;50.936;6.854;2022-10-31T00:41:17;14.40;99.90
3614;DHT22;1821;50.936;6.854;2022-10-31T00:41:59;13.90;99.90
3614;DHT22;1821;50.936;6.854;2022-10-31T00:42:41;14.30;99.90
3614;DHT22;1821;50.936;6.854;2022-10-31T00:43:23;14.30;99.90
3614;DHT22;1821;50.936;6.854;2022-10-31T00:44:04;14.10;99.90
3614;DHT22;1821;50.936;6.854;2022-10-31T00:44:46;14.40;99.90
3614;DHT22;1821;50.936;6.854;2022-10-31T00:45:28;14.50;99.90
3614;DHT22;1821;50.936;6.854;2022-10-31T00:46:10;14.30;99.90
3614;DHT22;1821;50.936;6.854;2022-10-31T00:46:52;14.50;99.90
3614;DHT22;1821;50.936;6.854;2022-10-31T00:47:34;14.40;99.90
3614;DHT22;1821;50.936;6.854;2022-10-31T00:48:16;14.20;99.90
3614;DHT22;1821;50.936;6.854;2022-10-31T00:48:57;14.50;99.90
3614;DHT22;1821;50.936;6.854;2022-10-31T00:49:39;14.40;99.90
3614;DHT22;1821;50.936;6.854;2022-10-31T00:50:21;14.40;99.90
3614;DHT22;1821;50.936;6.854;2022-10-31T00:51:02;14.30;99.90
3614;DHT22;1821;50.936;6.854;2022-10-31T00:51:44;14.00;99.90
3614;DHT22;1821;50.936;6.854;2022-10-31T00:52:26;14.50;99.90
3614;DHT22;1821;50.936;6.854;2022-10-31T00:53:07;14.40;99.90
3614;DHT22;1821;50.936;6.854;2022-10-31T00:53:49;14.40;99.90
3614;DHT22;1821;50.936;6.854;2022-10-31T00:54:31;14.50;99.90
3614;DHT22;1821;50.936;6.854;2022-10-31T00:55:12;14.40;99.90
3614;DHT22;1821;50.936;6.854;2022-10-31T00:55:54;14.10;99.90
3614;DHT22;1821;50.936;6.854;2022-10-31T00:56:36;14.50;99.90
3614;DHT22;1821;50.936;6.854;2022-10-31T00:57:17;14.40;99.90
3614;DHT22;1821;50.936;6.854;2022-10-31T00:57:59;14.60;99.90
3614;DHT22;1821;50.936;6.854;2022-10-31T00:58:42;14.10;99.90
3614;DHT22;1821;50.936;6.854;2022-10-31T00:59:23;14.40;99.90
3614;DHT22;1821;50.936;6.854;2022-10-31T01:00:05;14.40;99.90
3614;DHT22;1821;50.936;6.854;2022-10-31T01:00:48;14.20;99.90
3614;DHT22;1821;50.936;6.854;2022-10-31T01:01:36;14.50;99.90
3614;DHT22;1821;50.936;6.854;2022-10-31T01:02:18;14.40;99.90
3614;DHT22;1821;50.936;6.854;2022-10-31T01:03:00;14.50;99.90
3614;DHT22;1821;50.936;6.854;2022-10-31T01:03:43;14.40;99.90
3614;DHT22;1821;50.936;6.854;2022-10-31T01:04:24;14.20;99.90
3614;DHT22;1821;50.936;6.854;2022-10-31T01:05:06;14.10;99.90
3614;DHT22;1821;50.936;6.854;2022-10-31T01:05:58;14.10;99.90
3614;DHT22;1821;50.936;6.854;2022-10-31T01:06:40;14.30;99.90
3614;DHT22;1821;50.936;6.854;2022-10-31T01:07:22;14.50;99.90
3614;DHT22;1821;50.936;6.854;2022-10-31T01:08:04;14.10;99.90
3614;DHT22;1821;50.936;6.854;2022-10-31T01:08:47;14.10;99.90
3614;DHT22;1821;50.936;6.854;2022-10-31T01:09:29;14.10;99.90
3614;DHT22;1821;50.936;6.854;2022-10-31T01:10:11;14.40;99.90
3614;DHT22;1821;50.936;6.854;2022-10-31T01:11:08;14.20;99.90
3614;DHT22;1821;50.936;6.854;2022-10-31T01:11:51;14.10;99.90
3614;DHT22;1821;50.936;6.854;2022-10-31T01:12:42;14.50;99.90
3614;DHT22;1821;50.936;6.854;2022-10-31T01:13:25;14.10;99.90
3614;DHT22;1821;50.936;6.854;2022-10-31T01:14:06;14.50;99.90
3614;DHT22;1821;50.936;6.854;2022-10-31T01:14:48;14.00;99.90
3614;DHT22;1821;50.936;6.854;2022-10-31T01:15:30;14.10;99.90
3614;DHT22;1821;50.936;6.854;2022-10-31T01:16:16;14.40;99.90
3614;DHT22;1821;50.936;6.854;2022-10-31T01:16:58;13.90;99.90
3614;DHT22;1821;50.936;6.854;2022-10-31T01:17:40;14.30;99.90
3614;DHT22;1821;50.936;6.854;2022-10-31T01:18:22;14.30;99.90
3614;DHT22;1821;50.936;6.854;2022-10-31T01:19:04;14.00;99.90
3614;DHT22;1821;50.936;6.854;2022-10-31T01:19:45;14.40;99.90
3614;DHT22;1821;50.936;6.854;2022-10-31T01:20:27;14.00;99.90
3614;DHT22;1821;50.936;6.854;2022-10-31T01:21:12;14.40;99.90
3614;DHT22;1821;50.936;6.854;2022-10-31T01:21:55;14.20;99.90
3614;DHT22;1821;50.936;6.854;2022-10-31T01:22:36;14.50;99.90
3614;DHT22;1821;50.936;6.854;2022-10-31T01:23:18;14.00;99.90
3614;DHT22;1821;50.936;6.854;2022-10-31T01:24:00;14.00;99.90
3614;DHT22;1821;50.936;6.854;2022-10-31T01:24:43;14.40;99.90
3614;DHT22;1821;50.936;6.854;2022-10-31T01:25:25;14.10;99.90
3614;DHT22;1821;50.936;6.854;2022-10-31T01:26:13;14.30;99.90
3614;DHT22;1821;50.936;6.854;2022-10-31T01:26:55;13.90;99.90
3614;DHT22;1821;50.936;6.854;2022-10-31T01:27:37;14.00;99.90
3614;DHT22;1821;50.936;6.854;2022-10-31T01:28:19;14.30;99.90
3614;DHT22;1821;50.936;6.854;2022-10-31T01:29:06;14.10;99.90
3614;DHT22;1821;50.936;6.854;2022-10-31T01:29:48;14.10;99.90
3614;DHT22;1821;50.936;6.854;2022-10-31T01:30:30;14.20;99.90
3614;DHT22;1821;50.936;6.854;2022-10-31T01:31:11;14.20;99.90
3614;DHT22;1821;50.936;6.854;2022-10-31T01:31:53;14.30;99.90
3614;DHT22;1821;50.936;6.854;2022-10-31T01:32:35;13.90;99.90
3614;DHT22;1821;50.936;6.854;2022-10-31T01:33:16;14.10;99.90
3614;DHT22;1821;50.936;6.854;2022-10-31T01:33:59;14.50;99.90
3614;DHT22;1821;50.936;6.854;2022-10-31T01:34:41;14.30;99.90
3614;DHT22;1821;50.936;6.854;2022-10-31T01:35:22;14.50;99.90
3614;DHT22;1821;50.936;6.854;2022-10-31T01:36:22;14.30;99.90
3614;DHT22;1821;50.936;6.854;2022-10-31T01:37:04;14.10;99.90
3614;DHT22;1821;50.936;6.854;2022-10-31T01:37:46;14.10;99.90
3614;DHT22;1821;50.936;6.854;2022-10-31T01:38:28;14.40;99.90
3614;DHT22;1821;50.936;6.854;2022-10-31T01:39:11;14.30;99.90
3614;DHT22;1821;50.936;6.854;2022-10-31T01:39:53;14.30;99.90
3614;DHT22;1821;50.936;6.854;2022-10-31T01:40:35;14.40;99.90
3614;DHT22;1821;50.936;6.854;2022-10-31T01:41:20;14.00;99.90
3614;DHT22;1821;50.936;6.854;2022-10-31T01:42:02;14.30;99.90
3614;DHT22;1821;50.936;6.854;2022-10-31T01:42:44;14.10;99.90
3614;DHT22;1821;50.936;6.854;2022-10-31T01:44:03;14.30;99.90
3614;DHT22;1821;50.936;6.854;2022-10-31T01:45:25;14.20;99.90
3614;DHT22;1821;50.936;6.854;2022-10-31T01:46:06;13.90;99.90
3614;DHT22;1821;50.936;6.854;2022-10-31T01:46:55;14.30;99.90
3614;DHT22;1821;50.936;6.854;2022-10-31T01:47:42;14.00;99.90
3614;DHT22;1821;50.936;6.854;2022-10-31T01:48:27;14.40;99.90
3614;DHT22;1821;50.936;6.854;2022-10-31T01:49:14;14.00;99.90
3614;DHT22;1821;50.936;6.854;2022-10-31T01:50:00;14.20;99.90
3614;DHT22;1821;50.936;6.854;2022-10-31T01:50:43;13.90;99.90
3614;DHT22;1821;50.936;6.854;2022-10-31T01:51:30;14.30;99.90
3614;DHT22;1821;50.936;6.854;2022-10-31T01:52:25;14.30;99.90
3614;DHT22;1821;50.936;6.854;2022-10-31T01:53:09;14.10;99.90
3614;DHT22;1821;50.936;6.854;2022-10-31T01:53:54;14.40;99.90
3614;DHT22;1821;50.936;6.854;2022-10-31T01:54:40;13.80;99.90
3614;DHT22;1821;50.936;6.854;2022-10-31T01:55:30;13.90;99.90
3614;DHT22;1821;50.936;6.854;2022-10-31T01:56:15;13.80;99.90
3614;DHT22;1821;50.936;6.854;2022-10-31T01:56:58;14.40;99.90
3614;DHT22;1821;50.936;6.854;2022-10-31T01:57:44;13.90;99.90
3614;DHT22;1821;50.936;6.854;2022-10-31T01:58:28;13.90;99.90
3614;DHT22;1821;50.936;6.854;2022-10-31T01:59:12;13.80;99.90
3614;DHT22;1821;50.936;6.854;2022-10-31T01:59:59;14.00;99.90
3614;DHT22;1821;50.936;6.854;2022-10-31T02:00:45;13.90;99.90
3614;DHT22;1821;50.936;6.854;2022-10-31T02:01:29;14.10;99.90
3614;DHT22;1821;50.936;6.854;2022-10-31T02:02:11;14.30;99.90
3614;DHT22;1821;50.936;6.854;2022-10-31T02:02:54;14.10;99.90
3614;DHT22;1821;50.936;6.854;2022-10-31T02:03:37;14.30;99.90
3614;DHT22;1821;50.936;6.854;2022-10-31T02:04:22;13.80;99.90
3614;DHT22;1821;50.936;6.854;2022-10-31T02:05:09;14.40;99.90
3614;DHT22;1821;50.936;6.854;2022-10-31T02:05:54;14.20;99.90
3614;DHT22;1821;50.936;6.854;2022-10-31T02:06:48;13.70;99.90
3614;DHT22;1821;50.936;6.854;2022-10-31T02:07:54;14.30;99.90
3614;DHT22;1821;50.936;6.854;2022-10-31T02:08:37;14.00;99.90
3614;DHT22;1821;50.936;6.854;2022-10-31T02:09:20;13.70;99.90
3614;DHT22;1821;50.936;6.854;2022-10-31T02:10:05;13.60;99.90
3614;DHT22;1821;50.936;6.854;2022-10-31T02:10:47;13.70;99.90
3614;DHT22;1821;50.936;6.854;2022-10-31T02:11:29;14.10;99.90
3614;DHT22;1821;50.936;6.854;2022-10-31T02:12:12;14.00;99.90
3614;DHT22;1821;50.936;6.854;2022-10-31T02:12:55;13.70;99.90
3614;DHT22;1821;50.936;6.854;2022-10-31T02:13:39;13.90;99.90
3614;DHT22;1821;50.936;6.854;2022-10-31T02:14:25;13.90;99.90
3614;DHT22;1821;50.936;6.854;2022-10-31T02:15:08;13.60;99.90
3614;DHT22;1821;50.936;6.854;2022-10-31T02:15:53;13.70;99.90
3614;DHT22;1821;50.936;6.854;2022-10-31T02:16:35;14.20;99.90
3614;DHT22;1821;50.936;6.854;2022-10-31T02:17:17;13.90;99.90
3614;DHT22;1821;50.936;6.854;2022-10-31T02:17:59;13.50;99.90
3614;DHT22;1821;50.936;6.854;2022-10-31T02:18:41;13.70;99.90
3614;DHT22;1821;50.936;6.854;2022-10-31T02:20:23;13.60;99.90
3614;DHT22;1821;50.936;6.854;2022-10-31T02:21:50;13.60;99.90
3614;DHT22;1821;50.936;6.854;2022-10-31T02:24:09;13.50;99.90
3614;DHT22;1821;50.936;6.854;2022-10-31T02:25:15;13.70;99.90
3614;DHT22;1821;50.936;6.854;2022-10-31T02:26:58;13.80;99.90
3614;DHT22;1821;50.936;6.854;2022-10-31T02:27:55;13.80;99.90
3614;DHT22;1821;50.936;6.854;2022-10-31T02:30:10;13.50;99.90
3614;DHT22;1821;50.936;6.854;2022-10-31T02:32:27;13.40;99.90
3614;DHT22;1821;50.936;6.854;2022-10-31T02:33:30;13.40;99.90
3614;DHT22;1821;50.936;6.854;2022-10-31T02:34:23;14.00;99.90
3614;DHT22;1821;50.936;6.854;2022-10-31T02:36:10;13.80;99.90
3614;DHT22;1821;50.936;6.854;2022-10-31T02:36:58;13.40;99.90
3614;DHT22;1821;50.936;6.854;2022-10-31T02:39:14;13.50;99.90
3614;DHT22;1821;50.936;6.854;2022-10-31T02:42:45;13.20;99.90
3614;DHT22;1821;50.936;6.854;2022-10-31T02:43:21;13.40;99.90
3614;DHT22;1821;50.936;6.854;2022-10-31T02:47:12;13.30;99.90
3614;DHT22;1821;50.936;6.854;2022-10-31T02:47:59;13.60;99.90
3614;DHT22;1821;50.936;6.854;2022-10-31T02:48:44;13.60;99.90
3614;DHT22;1821;50.936;6.854;2022-10-31T02:50:23;13.90;99.90
3614;DHT22;1821;50.936;6.854;2022-10-31T02:51:08;13.30;99.90
3614;DHT22;1821;50.936;6.854;2022-10-31T02:51:50;13.70;99.90
3614;DHT22;1821;50.936;6.854;2022-10-31T02:52:33;13.80;99.90
3614;DHT22;1821;50.936;6.854;2022-10-31T02:53:15;14.00;99.90
3614;DHT22;1821;50.936;6.854;2022-10-31T02:53:57;13.80;99.90
3614;DHT22;1821;50.936;6.854;2022-10-31T02:54:46;13.40;99.90
3614;DHT22;1821;50.936;6.854;2022-10-31T02:56:16;13.40;99.90
3614;DHT22;1821;50.936;6.854;2022-10-31T02:57:03;13.40;99.90
3614;DHT22;1821;50.936;6.854;2022-10-31T02:57:45;13.50;99.90
3614;DHT22;1821;50.936;6.854;2022-10-31T02:58:32;13.80;99.90
3614;DHT22;1821;50.936;6.854;2022-10-31T02:59:15;13.30;99.90
3614;DHT22;1821;50.936;6.854;2022-10-31T03:00:02;13.60;99.90
3614;DHT22;1821;50.936;6.854;2022-10-31T03:03:10;13.40;99.90
3614;DHT22;1821;50.936;6.854;2022-10-31T03:05:14;13.30;99.90
3614;DHT22;1821;50.936;6.854;2022-10-31T03:06:06;13.40;99.90
3614;DHT22;1821;50.936;6.854;2022-10-31T03:07:19;13.20;99.90
3614;DHT22;1821;50.936;6.854;2022-10-31T03:09:17;13.30;99.90
3614;DHT22;1821;50.936;6.854;2022-10-31T03:10:19;13.70;99.90
3614;DHT22;1821;50.936;6.854;2022-10-31T03:11:06;13.40;99.90
3614;DHT22;1821;50.936;6.854;2022-10-31T03:12:04;13.90;99.90
3614;DHT22;1821;50.936;6.854;2022-10-31T03:14:18;13.20;99.90
3614;DHT22;1821;50.936;6.854;2022-10-31T03:15:13;13.60;99.90
3614;DHT22;1821;50.936;6.854;2022-10-31T03:16:50;13.10;99.90
3614;DHT22;1821;50.936;6.854;2022-10-31T03:17:36;13.40;99.90
3614;DHT22;1821;50.936;6.854;2022-10-31T03:18:32;13.20;99.90
3614;DHT22;1821;50.936;6.854;2022-10-31T03:20:00;13.30;99.90
3614;DHT22;1821;50.936;6.854;2022-10-31T03:20:54;13.40;99.90
3614;DHT22;1821;50.936;6.854;2022-10-31T03:22:01;13.50;99.90
3614;DHT22;1821;50.936;6.854;2022-10-31T03:22:45;13.10;99.90
3614;DHT22;1821;50.936;6.854;2022-10-31T03:23:28;13.30;99.90
3614;DHT22;1821;50.936;6.854;2022-10-31T03:24:13;13.40;99.90
3614;DHT22;1821;50.936;6.854;2022-10-31T03:24:56;13.40;99.90
3614;DHT22;1821;50.936;6.854;2022-10-31T03:25:39;13.70;99.90
3614;DHT22;1821;50.936;6.854;2022-10-31T03:26:23;13.30;99.90
3614;DHT22;1821;50.936;6.854;2022-10-31T03:27:07;13.50;99.90
3614;DHT22;1821;50.936;6.854;2022-10-31T03:27:51;13.50;99.90
3614;DHT22;1821;50.936;6.854;2022-10-31T03:29:54;12.90;99.90
3614;DHT22;1821;50.936;6.854;2022-10-31T03:30:38;13.70;99.90
3614;DHT22;1821;50.936;6.854;2022-10-31T03:31:26;13.10;99.90
3614;DHT22;1821;50.936;6.854;2022-10-31T03:32:13;13.20;99.90
3614;DHT22;1821;50.936;6.854;2022-10-31T03:32:57;13.80;99.90
3614;DHT22;1821;50.936;6.854;2022-10-31T03:33:42;13.50;99.90
3614;DHT22;1821;50.936;6.854;2022-10-31T03:34:25;13.80;99.90
3614;DHT22;1821;50.936;6.854;2022-10-31T03:35:08;13.00;99.90
3614;DHT22;1821;50.936;6.854;2022-10-31T03:35:53;13.70;99.90
3614;DHT22;1821;50.936;6.854;2022-10-31T03:36:38;13.40;99.90
3614;DHT22;1821;50.936;6.854;2022-10-31T03:37:22;13.50;99.90
3614;DHT22;1821;50.936;6.854;2022-10-31T03:38:06;13.60;99.90
3614;DHT22;1821;50.936;6.854;2022-10-31T03:38:48;13.50;99.90
3614;DHT22;1821;50.936;6.854;2022-10-31T03:39:31;13.30;99.90
3614;DHT22;1821;50.936;6.854;2022-10-31T03:40:15;13.40;99.90
3614;DHT22;1821;50.936;6.854;2022-10-31T03:40:59;13.50;99.90
3614;DHT22;1821;50.936;6.854;2022-10-31T03:41:47;13.00;99.90
3614;DHT22;1821;50.936;6.854;2022-10-31T03:42:31;13.10;99.90
3614;DHT22;1821;50.936;6.854;2022-10-31T03:43:18;13.40;99.90
3614;DHT22;1821;50.936;6.854;2022-10-31T03:44:08;13.50;99.90
3614;DHT22;1821;50.936;6.854;2022-10-31T03:44:57;13.40;99.90
3614;DHT22;1821;50.936;6.854;2022-10-31T03:45:44;13.50;99.90
3614;DHT22;1821;50.936;6.854;2022-10-31T03:46:27;13.30;99.90
3614;DHT22;1821;50.936;6.854;2022-10-31T03:47:09;13.40;99.90
3614;DHT22;1821;50.936;6.854;2022-10-31T03:47:51;13.60;99.90
3614;DHT22;1821;50.936;6.854;2022-10-31T03:48:34;13.50;99.90
3614;DHT22;1821;50.936;6.854;2022-10-31T03:49:16;13.70;99.90
3614;DHT22;1821;50.936;6.854;2022-10-31T03:49:58;13.60;99.90
3614;DHT22;1821;50.936;6.854;2022-10-31T03:51:39;13.00;99.90
3614;DHT22;1821;50.936;6.854;2022-10-31T03:52:33;13.50;99.90
3614;DHT22;1821;50.936;6.854;2022-10-31T03:53:24;13.40;99.90
3614;DHT22;1821;50.936;6.854;2022-10-31T03:55:20;13.30;99.90
3614;DHT22;1821;50.936;6.854;2022-10-31T03:56:57;13.60;99.90
3614;DHT22;1821;50.936;6.854;2022-10-31T03:57:59;13.30;99.90
3614;DHT22;1821;50.936;6.854;2022-10-31T03:59:05;13.10;99.90
3614;DHT22;1821;50.936;6.854;2022-10-31T04:00:46;13.50;99.90
3614;DHT22;1821;50.936;6.854;2022-10-31T04:01:31;13.30;99.90
3614;DHT22;1821;50.936;6.854;2022-10-31T04:02:19;13.60;99.90
3614;DHT22;1821;50.936;6.854;2022-10-31T04:03:09;13.60;99.90
3614;DHT22;1821;50.936;6.854;2022-10-31T04:03:53;13.80;99.90
3614;DHT22;1821;50.936;6.854;2022-10-31T04:04:36;13.40;99.90
3614;DHT22;1821;50.936;6.854;2022-10-31T04:05:19;13.60;99.90
3614;DHT22;1821;50.936;6.854;2022-10-31T04:06:08;13.60;99.90
3614;DHT22;1821;50.936;6.854;2022-10-31T04:06:50;13.70;99.90
3614;DHT22;1821;50.936;6.854;2022-10-31T04:07:39;13.50;99.90
3614;DHT22;1821;50.936;6.854;2022-10-31T04:08:26;13.10;99.90
3614;DHT22;1821;50.936;6.854;2022-10-31T04:09:09;13.30;99.90
3614;DHT22;1821;50.936;6.854;2022-10-31T04:09:52;13.60;99.90
3614;DHT22;1821;50.936;6.854;2022-10-31T04:10:35;13.50;99.90
3614;DHT22;1821;50.936;6.854;2022-10-31T04:11:23;13.60;99.90
3614;DHT22;1821;50.936;6.854;2022-10-31T04:12:07;13.30;99.90
3614;DHT22;1821;50.936;6.854;2022-10-31T04:12:56;13.30;99.90
3614;DHT22;1821;50.936;6.854;2022-10-31T04:13:40;13.50;99.90
3614;DHT22;1821;50.936;6.854;2022-10-31T04:14:25;13.30;99.90
3614;DHT22;1821;50.936;6.854;2022-10-31T04:15:08;13.40;99.90
3614;DHT22;1821;50.936;6.854;2022-10-31T04:15:52;13.40;99.90
3614;DHT22;1821;50.936;6.854;2022-10-31T04:16:35;13.50;99.90
3614;DHT22;1821;50.936;6.854;2022-10-31T04:17:19;13.40;99.90
3614;DHT22;1821;50.936;6.854;2022-10-31T04:18:04;13.40;99.90
3614;DHT22;1821;50.936;6.854;2022-10-31T04:18:46;13.20;99.90
3614;DHT22;1821;50.936;6.854;2022-10-31T04:19:28;13.70;99.90
3614;DHT22;1821;50.936;6.854;2022-10-31T04:20:10;13.80;99.90
3614;DHT22;1821;50.936;6.854;2022-10-31T04:21:03;13.40;99.90
3614;DHT22;1821;50.936;6.854;2022-10-31T04:21:45;13.50;99.90
3614;DHT22;1821;50.936;6.854;2022-10-31T04:22:27;13.90;99.90
3614;DHT22;1821;50.936;6.854;2022-10-31T04:23:18;13.80;99.90
3614;DHT22;1821;50.936;6.854;2022-10-31T04:24:00;13.50;99.90
3614;DHT22;1821;50.936;6.854;2022-10-31T04:24:42;13.40;99.90
3614;DHT22;1821;50.936;6.854;2022-10-31T04:25:24;13.70;99.90
3614;DHT22;1821;50.936;6.854;2022-10-31T04:26:06;13.80;99.90
3614;DHT22;1821;50.936;6.854;2022-10-31T04:26:47;13.70;99.90
3614;DHT22;1821;50.936;6.854;2022-10-31T04:27:29;13.30;99.90
3614;DHT22;1821;50.936;6.854;2022-10-31T04:28:11;13.90;99.90
3614;DHT22;1821;50.936;6.854;2022-10-31T04:28:52;13.60;99.90
3614;DHT22;1821;50.936;6.854;2022-10-31T04:29:34;13.80;99.90
3614;DHT22;1821;50.936;6.854;2022-10-31T04:30:16;13.90;99.90
3614;DHT22;1821;50.936;6.854;2022-10-31T04:30:57;13.80;99.90
3614;DHT22;1821;50.936;6.854;2022-10-31T04:31:39;13.30;99.90
3614;DHT22;1821;50.936;6.854;2022-10-31T04:32:21;13.60;99.90
3614;DHT22;1821;50.936;6.854;2022-10-31T04:33:02;13.90;99.90
3614;DHT22;1821;50.936;6.854;2022-10-31T04:33:44;13.70;99.90
3614;DHT22;1821;50.936;6.854;2022-10-31T04:34:26;13.80;99.90
3614;DHT22;1821;50.936;6.854;2022-10-31T04:35:08;13.90;99.90
3614;DHT22;1821;50.936;6.854;2022-10-31T04:35:49;13.70;99.90
3614;DHT22;1821;50.936;6.854;2022-10-31T04:36:31;13.60;99.90
3614;DHT22;1821;50.936;6.854;2022-10-31T04:37:13;14.00;99.90
3614;DHT22;1821;50.936;6.854;2022-10-31T04:37:55;13.60;99.90
3614;DHT22;1821;50.936;6.854;2022-10-31T04:38:36;13.80;99.90
3614;DHT22;1821;50.936;6.854;2022-10-31T04:39:18;13.70;99.90
3614;DHT22;1821;50.936;6.854;2022-10-31T04:40:07;13.40;99.90
3614;DHT22;1821;50.936;6.854;2022-10-31T04:40:49;13.50;99.90
3614;DHT22;1821;50.936;6.854;2022-10-31T04:41:31;13.40;99.90
3614;DHT22;1821;50.936;6.854;2022-10-31T04:42:12;13.50;99.90
3614;DHT22;1821;50.936;6.854;2022-10-31T04:42:54;13.80;99.90
3614;DHT22;1821;50.936;6.854;2022-10-31T04:43:35;13.60;99.90
3614;DHT22;1821;50.936;6.854;2022-10-31T04:44:17;13.50;99.90
3614;DHT22;1821;50.936;6.854;2022-10-31T04:44:59;13.90;99.90
3614;DHT22;1821;50.936;6.854;2022-10-31T04:45:40;13.40;99.90
3614;DHT22;1821;50.936;6.854;2022-10-31T04:46:22;13.70;99.90
3614;DHT22;1821;50.936;6.854;2022-10-31T04:47:04;13.30;99.90
3614;DHT22;1821;50.936;6.854;2022-10-31T04:47:46;13.70;99.90
3614;DHT22;1821;50.936;6.854;2022-10-31T04:48:27;13.80;99.90
3614;DHT22;1821;50.936;6.854;2022-10-31T04:49:09;13.50;99.90
3614;DHT22;1821;50.936;6.854;2022-10-31T04:49:51;13.60;99.90
3614;DHT22;1821;50.936;6.854;2022-10-31T04:50:32;13.80;99.90
3614;DHT22;1821;50.936;6.854;2022-10-31T04:51:14;13.40;99.90
3614;DHT22;1821;50.936;6.854;2022-10-31T04:51:56;13.40;99.90
3614;DHT22;1821;50.936;6.854;2022-10-31T04:52:42;13.50;99.90
3614;DHT22;1821;50.936;6.854;2022-10-31T04:53:24;13.70;99.90
3614;DHT22;1821;50.936;6.854;2022-10-31T04:54:06;13.70;99.90
3614;DHT22;1821;50.936;6.854;2022-10-31T04:54:47;13.40;99.90
3614;DHT22;1821;50.936;6.854;2022-10-31T04:55:29;13.80;99.90
3614;DHT22;1821;50.936;6.854;2022-10-31T04:56:11;13.50;99.90
3614;DHT22;1821;50.936;6.854;2022-10-31T04:56:53;13.90;99.90
3614;DHT22;1821;50.936;6.854;2022-10-31T04:57:48;13.60;99.90
3614;DHT22;1821;50.936;6.854;2022-10-31T04:58:30;13.30;99.90
3614;DHT22;1821;50.936;6.854;2022-10-31T04:59:11;13.80;99.90
3614;DHT22;1821;50.936;6.854;2022-10-31T04:59:53;14.00;99.90
3614;DHT22;1821;50.936;6.854;2022-10-31T05:00:35;13.80;99.90
3614;DHT22;1821;50.936;6.854;2022-10-31T05:01:16;13.60;99.90
3614;DHT22;1821;50.936;6.854;2022-10-31T05:01:58;13.40;99.90
3614;DHT22;1821;50.936;6.854;2022-10-31T05:02:47;13.90;99.90
3614;DHT22;1821;50.936;6.854;2022-10-31T05:03:29;13.30;99.90
3614;DHT22;1821;50.936;6.854;2022-10-31T05:04:11;13.50;99.90
3614;DHT22;1821;50.936;6.854;2022-10-31T05:04:52;13.30;99.90
3614;DHT22;1821;50.936;6.854;2022-10-31T05:05:34;13.40;99.90
3614;DHT22;1821;50.936;6.854;2022-10-31T05:06:16;13.50;99.90
3614;DHT22;1821;50.936;6.854;2022-10-31T05:06:58;13.80;99.90
3614;DHT22;1821;50.936;6.854;2022-10-31T05:07:41;13.70;99.90
3614;DHT22;1821;50.936;6.854;2022-10-31T05:08:23;13.30;99.90
3614;DHT22;1821;50.936;6.854;2022-10-31T05:09:04;13.40;99.90
3614;DHT22;1821;50.936;6.854;2022-10-31T05:09:46;13.30;99.90
3614;DHT22;1821;50.936;6.854;2022-10-31T05:10:29;13.30;99.90
3614;DHT22;1821;50.936;6.854;2022-10-31T05:11:12;13.40;99.90
3614;DHT22;1821;50.936;6.854;2022-10-31T05:11:54;13.80;99.90
3614;DHT22;1821;50.936;6.854;2022-10-31T05:12:36;13.40;99.90
3614;DHT22;1821;50.936;6.854;2022-10-31T05:13:18;13.20;99.90
3614;DHT22;1821;50.936;6.854;2022-10-31T05:13:59;13.70;99.90
3614;DHT22;1821;50.936;6.854;2022-10-31T05:14:41;13.30;99.90
3614;DHT22;1821;50.936;6.854;2022-10-31T05:15:29;13.40;99.90
3614;DHT22;1821;50.936;6.854;2022-10-31T05:16:11;13.50;99.90
3614;DHT22;1821;50.936;6.854;2022-10-31T05:16:52;13.50;99.90
3614;DHT22;1821;50.936;6.854;2022-10-31T05:17:34;13.20;99.90
3614;DHT22;1821;50.936;6.854;2022-10-31T05:18:16;13.50;99.90
3614;DHT22;1821;50.936;6.854;2022-10-31T05:18:58;13.40;99.90
3614;DHT22;1821;50.936;6.854;2022-10-31T05:19:39;13.20;99.90